sensor_id;sensor_type;location;lat;lon;timestamp;P1;durP1;ratioP1;P2;durP2;ratioP2
10667;SDS011;5382;42.136;24.796;2022-09-02T00:01:11;12.50;;;9.90;;
10667;SDS011;5382;42.136;24.796;2022-09-02T00:03:41;14.63;;;9.90;;
10667;SDS011;5382;42.136;24.796;2022-09-02T00:06:10;16.95;;;9.98;;
10667;SDS011;5382;42.136;24.796;2022-09-02T00:08:37;12.25;;;9.70;;
10667;SDS011;5382;42.136;24.796;2022-09-02T00:11:06;13.10;;;10.10;;
10667;SDS011;5382;42.136;24.796;2022-09-02T00:13:34;14.27;;;9.32;;
10667;SDS011;5382;42.136;24.796;2022-09-02T00:16:02;12.68;;;9.80;;
10667;SDS011;5382;42.136;24.796;2022-09-02T00:18:30;11.32;;;9.68;;
10667;SDS011;5382;42.136;24.796;2022-09-02T00:20:57;12.15;;;9.43;;
10667;SDS011;5382;42.136;24.796;2022-09-02T00:23:26;11.10;;;8.88;;
10667;SDS011;5382;42.136;24.796;2022-09-02T00:25:53;12.82;;;8.77;;
10667;SDS011;5382;42.136;24.796;2022-09-02T00:28:20;13.63;;;9.68;;
10667;SDS011;5382;42.136;24.796;2022-09-02T00:30:47;13.25;;;9.98;;
10667;SDS011;5382;42.136;24.796;2022-09-02T00:33:14;11.40;;;9.30;;
10667;SDS011;5382;42.136;24.796;2022-09-02T00:35:41;12.43;;;8.82;;
10667;SDS011;5382;42.136;24.796;2022-09-02T00:38:09;10.43;;;8.70;;
10667;SDS011;5382;42.136;24.796;2022-09-02T00:40:38;10.93;;;9.68;;
10667;SDS011;5382;42.136;24.796;2022-09-02T00:43:08;12.05;;;8.82;;
10667;SDS011;5382;42.136;24.796;2022-09-02T00:45:35;12.05;;;8.95;;
10667;SDS011;5382;42.136;24.796;2022-09-02T00:48:03;13.65;;;9.63;;
10667;SDS011;5382;42.136;24.796;2022-09-02T00:50:32;13.50;;;10.38;;
10667;SDS011;5382;42.136;24.796;2022-09-02T00:53:02;10.48;;;9.35;;
10667;SDS011;5382;42.136;24.796;2022-09-02T00:55:34;11.90;;;9.55;;
10667;SDS011;5382;42.136;24.796;2022-09-02T00:58:07;14.07;;;10.18;;
10667;SDS011;5382;42.136;24.796;2022-09-02T01:00:42;10.95;;;9.38;;
10667;SDS011;5382;42.136;24.796;2022-09-02T01:03:13;10.90;;;9.27;;
10667;SDS011;5382;42.136;24.796;2022-09-02T01:05:44;11.13;;;9.52;;
10667;SDS011;5382;42.136;24.796;2022-09-02T01:08:15;10.82;;;9.65;;
10667;SDS011;5382;42.136;24.796;2022-09-02T01:10:49;12.20;;;9.77;;
10667;SDS011;5382;42.136;24.796;2022-09-02T01:13:21;14.15;;;10.13;;
10667;SDS011;5382;42.136;24.796;2022-09-02T01:15:52;11.68;;;10.00;;
10667;SDS011;5382;42.136;24.796;2022-09-02T01:18:22;11.20;;;9.70;;
10667;SDS011;5382;42.136;24.796;2022-09-02T01:20:53;15.15;;;10.68;;
10667;SDS011;5382;42.136;24.796;2022-09-02T01:23:21;14.73;;;10.90;;
10667;SDS011;5382;42.136;24.796;2022-09-02T01:25:48;12.70;;;10.20;;
10667;SDS011;5382;42.136;24.796;2022-09-02T01:28:17;12.73;;;10.00;;
10667;SDS011;5382;42.136;24.796;2022-09-02T01:30:46;11.27;;;9.75;;
10667;SDS011;5382;42.136;24.796;2022-09-02T01:33:15;12.73;;;9.48;;
10667;SDS011;5382;42.136;24.796;2022-09-02T01:35:43;12.25;;;9.48;;
10667;SDS011;5382;42.136;24.796;2022-09-02T01:38:11;15.82;;;9.77;;
10667;SDS011;5382;42.136;24.796;2022-09-02T01:40:40;11.82;;;9.40;;
10667;SDS011;5382;42.136;24.796;2022-09-02T01:43:08;15.07;;;9.30;;
10667;SDS011;5382;42.136;24.796;2022-09-02T01:45:37;10.60;;;8.43;;
10667;SDS011;5382;42.136;24.796;2022-09-02T01:48:05;13.70;;;8.85;;
10667;SDS011;5382;42.136;24.796;2022-09-02T01:50:33;10.30;;;8.77;;
10667;SDS011;5382;42.136;24.796;2022-09-02T01:53:02;10.40;;;9.35;;
10667;SDS011;5382;42.136;24.796;2022-09-02T01:55:29;13.80;;;9.38;;
10667;SDS011;5382;42.136;24.796;2022-09-02T01:57:58;14.30;;;8.80;;
10667;SDS011;5382;42.136;24.796;2022-09-02T02:00:25;13.80;;;9.95;;
10667;SDS011;5382;42.136;24.796;2022-09-02T02:02:53;11.32;;;9.52;;
10667;SDS011;5382;42.136;24.796;2022-09-02T02:05:20;13.73;;;8.88;;
10667;SDS011;5382;42.136;24.796;2022-09-02T02:07:49;12.27;;;9.75;;
10667;SDS011;5382;42.136;24.796;2022-09-02T02:10:17;13.27;;;10.18;;
10667;SDS011;5382;42.136;24.796;2022-09-02T02:12:45;11.57;;;9.65;;
10667;SDS011;5382;42.136;24.796;2022-09-02T02:15:15;11.82;;;9.45;;
10667;SDS011;5382;42.136;24.796;2022-09-02T02:17:44;10.10;;;9.02;;
10667;SDS011;5382;42.136;24.796;2022-09-02T02:20:11;13.27;;;9.43;;
10667;SDS011;5382;42.136;24.796;2022-09-02T02:22:40;13.77;;;9.55;;
10667;SDS011;5382;42.136;24.796;2022-09-02T02:25:08;16.42;;;9.52;;
10667;SDS011;5382;42.136;24.796;2022-09-02T02:27:36;10.80;;;9.25;;
10667;SDS011;5382;42.136;24.796;2022-09-02T02:30:03;13.02;;;9.60;;
10667;SDS011;5382;42.136;24.796;2022-09-02T02:32:32;13.35;;;8.95;;
10667;SDS011;5382;42.136;24.796;2022-09-02T02:35:00;11.77;;;8.35;;
10667;SDS011;5382;42.136;24.796;2022-09-02T02:37:27;13.95;;;8.98;;
10667;SDS011;5382;42.136;24.796;2022-09-02T02:39:54;11.63;;;8.38;;
10667;SDS011;5382;42.136;24.796;2022-09-02T02:42:21;12.85;;;9.45;;
10667;SDS011;5382;42.136;24.796;2022-09-02T02:44:48;12.70;;;8.70;;
10667;SDS011;5382;42.136;24.796;2022-09-02T02:47:15;11.02;;;9.35;;
10667;SDS011;5382;42.136;24.796;2022-09-02T02:49:44;11.85;;;10.63;;
10667;SDS011;5382;42.136;24.796;2022-09-02T02:52:11;10.77;;;9.10;;
10667;SDS011;5382;42.136;24.796;2022-09-02T02:54:38;10.63;;;8.45;;
10667;SDS011;5382;42.136;24.796;2022-09-02T02:57:06;11.82;;;8.68;;
10667;SDS011;5382;42.136;24.796;2022-09-02T02:59:35;11.20;;;8.23;;
10667;SDS011;5382;42.136;24.796;2022-09-02T03:02:03;9.60;;;8.68;;
10667;SDS011;5382;42.136;24.796;2022-09-02T03:04:30;11.73;;;9.38;;
10667;SDS011;5382;42.136;24.796;2022-09-02T03:06:59;14.85;;;9.82;;
10667;SDS011;5382;42.136;24.796;2022-09-02T03:09:27;11.73;;;8.77;;
10667;SDS011;5382;42.136;24.796;2022-09-02T03:11:54;11.43;;;8.45;;
10667;SDS011;5382;42.136;24.796;2022-09-02T03:14:21;13.23;;;8.93;;
10667;SDS011;5382;42.136;24.796;2022-09-02T03:16:48;9.90;;;8.35;;
10667;SDS011;5382;42.136;24.796;2022-09-02T03:19:15;13.23;;;8.85;;
10667;SDS011;5382;42.136;24.796;2022-09-02T03:21:42;12.77;;;8.43;;
10667;SDS011;5382;42.136;24.796;2022-09-02T03:24:11;10.07;;;9.02;;
10667;SDS011;5382;42.136;24.796;2022-09-02T03:26:39;10.23;;;9.07;;
10667;SDS011;5382;42.136;24.796;2022-09-02T03:29:07;12.20;;;9.07;;
10667;SDS011;5382;42.136;24.796;2022-09-02T03:31:34;10.65;;;8.77;;
10667;SDS011;5382;42.136;24.796;2022-09-02T03:34:01;12.73;;;8.57;;
10667;SDS011;5382;42.136;24.796;2022-09-02T03:36:29;11.93;;;9.48;;
10667;SDS011;5382;42.136;24.796;2022-09-02T03:39:00;11.77;;;8.95;;
10667;SDS011;5382;42.136;24.796;2022-09-02T03:41:29;10.38;;;8.85;;
10667;SDS011;5382;42.136;24.796;2022-09-02T03:43:56;10.98;;;9.10;;
10667;SDS011;5382;42.136;24.796;2022-09-02T03:46:23;13.20;;;9.02;;
10667;SDS011;5382;42.136;24.796;2022-09-02T03:48:51;10.85;;;8.43;;
10667;SDS011;5382;42.136;24.796;2022-09-02T03:51:18;12.88;;;9.05;;
10667;SDS011;5382;42.136;24.796;2022-09-02T03:53:45;11.68;;;9.43;;
10667;SDS011;5382;42.136;24.796;2022-09-02T03:56:12;12.50;;;8.88;;
10667;SDS011;5382;42.136;24.796;2022-09-02T03:58:42;15.27;;;8.20;;
10667;SDS011;5382;42.136;24.796;2022-09-02T04:01:12;11.45;;;8.65;;
10667;SDS011;5382;42.136;24.796;2022-09-02T04:03:39;11.63;;;8.68;;
10667;SDS011;5382;42.136;24.796;2022-09-02T04:06:07;11.35;;;8.85;;
10667;SDS011;5382;42.136;24.796;2022-09-02T04:08:37;9.55;;;8.55;;
10667;SDS011;5382;42.136;24.796;2022-09-02T04:11:04;11.38;;;8.05;;
10667;SDS011;5382;42.136;24.796;2022-09-02T04:13:33;13.45;;;8.88;;
10667;SDS011;5382;42.136;24.796;2022-09-02T04:16:06;11.25;;;8.75;;
10667;SDS011;5382;42.136;24.796;2022-09-02T04:18:34;9.85;;;8.85;;
10667;SDS011;5382;42.136;24.796;2022-09-02T04:21:01;9.27;;;8.23;;
10667;SDS011;5382;42.136;24.796;2022-09-02T04:23:29;11.18;;;8.60;;
10667;SDS011;5382;42.136;24.796;2022-09-02T04:25:56;10.07;;;8.85;;
10667;SDS011;5382;42.136;24.796;2022-09-02T04:28:23;10.95;;;8.25;;
10667;SDS011;5382;42.136;24.796;2022-09-02T04:30:50;11.05;;;8.45;;
10667;SDS011;5382;42.136;24.796;2022-09-02T04:33:18;8.80;;;7.90;;
10667;SDS011;5382;42.136;24.796;2022-09-02T04:35:46;10.02;;;8.52;;
10667;SDS011;5382;42.136;24.796;2022-09-02T04:38:13;13.65;;;8.70;;
10667;SDS011;5382;42.136;24.796;2022-09-02T04:40:41;12.93;;;8.45;;
10667;SDS011;5382;42.136;24.796;2022-09-02T04:43:09;9.95;;;7.85;;
10667;SDS011;5382;42.136;24.796;2022-09-02T04:45:37;9.70;;;7.85;;
10667;SDS011;5382;42.136;24.796;2022-09-02T04:48:05;10.77;;;8.30;;
10667;SDS011;5382;42.136;24.796;2022-09-02T04:50:35;11.63;;;8.50;;
10667;SDS011;5382;42.136;24.796;2022-09-02T04:53:04;9.65;;;8.32;;
10667;SDS011;5382;42.136;24.796;2022-09-02T04:55:32;9.35;;;8.30;;
10667;SDS011;5382;42.136;24.796;2022-09-02T04:57:59;11.10;;;8.35;;
10667;SDS011;5382;42.136;24.796;2022-09-02T05:00:27;12.27;;;8.50;;
10667;SDS011;5382;42.136;24.796;2022-09-02T05:02:54;11.63;;;7.95;;
10667;SDS011;5382;42.136;24.796;2022-09-02T05:05:21;13.05;;;8.30;;
10667;SDS011;5382;42.136;24.796;2022-09-02T05:07:50;9.00;;;8.10;;
10667;SDS011;5382;42.136;24.796;2022-09-02T05:10:20;10.65;;;8.30;;
10667;SDS011;5382;42.136;24.796;2022-09-02T05:12:48;11.18;;;8.13;;
10667;SDS011;5382;42.136;24.796;2022-09-02T05:15:15;10.02;;;8.13;;
10667;SDS011;5382;42.136;24.796;2022-09-02T05:17:42;12.77;;;9.45;;
10667;SDS011;5382;42.136;24.796;2022-09-02T05:20:10;10.63;;;8.15;;
10667;SDS011;5382;42.136;24.796;2022-09-02T05:22:38;10.18;;;8.02;;
10667;SDS011;5382;42.136;24.796;2022-09-02T05:25:07;11.63;;;8.88;;
10667;SDS011;5382;42.136;24.796;2022-09-02T05:27:36;9.38;;;8.48;;
10667;SDS011;5382;42.136;24.796;2022-09-02T05:30:04;10.45;;;9.02;;
10667;SDS011;5382;42.136;24.796;2022-09-02T05:32:32;12.18;;;9.27;;
10667;SDS011;5382;42.136;24.796;2022-09-02T05:34:59;11.43;;;9.35;;
10667;SDS011;5382;42.136;24.796;2022-09-02T05:37:26;13.80;;;9.43;;
10667;SDS011;5382;42.136;24.796;2022-09-02T05:39:53;14.10;;;8.63;;
10667;SDS011;5382;42.136;24.796;2022-09-02T05:42:21;10.75;;;8.57;;
10667;SDS011;5382;42.136;24.796;2022-09-02T05:44:48;10.32;;;8.77;;
10667;SDS011;5382;42.136;24.796;2022-09-02T05:47:15;11.15;;;8.70;;
10667;SDS011;5382;42.136;24.796;2022-09-02T05:49:42;11.23;;;8.38;;
10667;SDS011;5382;42.136;24.796;2022-09-02T05:52:11;10.55;;;8.52;;
10667;SDS011;5382;42.136;24.796;2022-09-02T05:54:38;9.55;;;8.35;;
10667;SDS011;5382;42.136;24.796;2022-09-02T05:57:06;10.88;;;8.82;;
10667;SDS011;5382;42.136;24.796;2022-09-02T05:59:37;11.48;;;8.43;;
10667;SDS011;5382;42.136;24.796;2022-09-02T06:02:06;10.05;;;9.02;;
10667;SDS011;5382;42.136;24.796;2022-09-02T06:04:35;12.25;;;8.27;;
10667;SDS011;5382;42.136;24.796;2022-09-02T06:07:05;10.90;;;8.73;;
10667;SDS011;5382;42.136;24.796;2022-09-02T06:09:32;9.88;;;8.85;;
10667;SDS011;5382;42.136;24.796;2022-09-02T06:12:00;10.50;;;8.48;;
10667;SDS011;5382;42.136;24.796;2022-09-02T06:14:27;11.98;;;8.55;;
10667;SDS011;5382;42.136;24.796;2022-09-02T06:16:56;10.50;;;7.85;;
10667;SDS011;5382;42.136;24.796;2022-09-02T06:19:24;11.93;;;8.10;;
10667;SDS011;5382;42.136;24.796;2022-09-02T06:21:53;10.75;;;7.97;;
10667;SDS011;5382;42.136;24.796;2022-09-02T06:24:20;9.63;;;7.90;;
10667;SDS011;5382;42.136;24.796;2022-09-02T06:26:47;9.52;;;7.88;;
10667;SDS011;5382;42.136;24.796;2022-09-02T06:29:15;8.45;;;7.60;;
10667;SDS011;5382;42.136;24.796;2022-09-02T06:31:42;12.38;;;7.50;;
10667;SDS011;5382;42.136;24.796;2022-09-02T06:34:12;12.25;;;7.97;;
10667;SDS011;5382;42.136;24.796;2022-09-02T06:36:41;14.57;;;8.52;;
10667;SDS011;5382;42.136;24.796;2022-09-02T06:39:09;9.07;;;7.57;;
10667;SDS011;5382;42.136;24.796;2022-09-02T06:41:38;11.70;;;7.82;;
10667;SDS011;5382;42.136;24.796;2022-09-02T06:44:06;10.50;;;7.72;;
10667;SDS011;5382;42.136;24.796;2022-09-02T06:46:35;12.10;;;8.25;;
10667;SDS011;5382;42.136;24.796;2022-09-02T06:49:04;9.07;;;7.90;;
10667;SDS011;5382;42.136;24.796;2022-09-02T06:51:34;10.23;;;7.47;;
10667;SDS011;5382;42.136;24.796;2022-09-02T06:54:03;10.90;;;7.05;;
10667;SDS011;5382;42.136;24.796;2022-09-02T06:56:32;13.82;;;8.07;;
10667;SDS011;5382;42.136;24.796;2022-09-02T06:59:01;8.48;;;7.68;;
10667;SDS011;5382;42.136;24.796;2022-09-02T07:01:29;8.98;;;7.65;;
10667;SDS011;5382;42.136;24.796;2022-09-02T07:03:58;11.27;;;7.93;;
10667;SDS011;5382;42.136;24.796;2022-09-02T07:06:44;12.25;;;8.02;;
10667;SDS011;5382;42.136;24.796;2022-09-02T07:09:15;12.25;;;8.00;;
10667;SDS011;5382;42.136;24.796;2022-09-02T07:11:55;10.07;;;8.07;;
10667;SDS011;5382;42.136;24.796;2022-09-02T07:14:24;13.85;;;8.07;;
10667;SDS011;5382;42.136;24.796;2022-09-02T07:16:53;8.40;;;7.55;;
10667;SDS011;5382;42.136;24.796;2022-09-02T07:19:21;8.60;;;7.80;;
10667;SDS011;5382;42.136;24.796;2022-09-02T07:21:50;13.40;;;7.40;;
10667;SDS011;5382;42.136;24.796;2022-09-02T07:24:18;12.23;;;8.20;;
10667;SDS011;5382;42.136;24.796;2022-09-02T07:26:45;10.45;;;7.40;;
10667;SDS011;5382;42.136;24.796;2022-09-02T07:29:15;25.90;;;9.02;;
10667;SDS011;5382;42.136;24.796;2022-09-02T07:31:43;9.50;;;7.18;;
10667;SDS011;5382;42.136;24.796;2022-09-02T07:34:12;9.02;;;6.90;;
10667;SDS011;5382;42.136;24.796;2022-09-02T07:36:40;10.55;;;7.57;;
10667;SDS011;5382;42.136;24.796;2022-09-02T07:39:11;14.38;;;8.00;;
10667;SDS011;5382;42.136;24.796;2022-09-02T07:41:39;8.50;;;7.45;;
10667;SDS011;5382;42.136;24.796;2022-09-02T07:44:07;11.75;;;7.60;;
10667;SDS011;5382;42.136;24.796;2022-09-02T07:46:34;11.52;;;8.27;;
10667;SDS011;5382;42.136;24.796;2022-09-02T07:49:03;10.02;;;8.57;;
10667;SDS011;5382;42.136;24.796;2022-09-02T07:51:32;10.75;;;8.20;;
10667;SDS011;5382;42.136;24.796;2022-09-02T07:54:00;9.48;;;7.53;;
10667;SDS011;5382;42.136;24.796;2022-09-02T07:56:31;10.52;;;8.07;;
10667;SDS011;5382;42.136;24.796;2022-09-02T07:58:58;13.43;;;10.38;;
10667;SDS011;5382;42.136;24.796;2022-09-02T08:01:25;10.82;;;9.45;;
10667;SDS011;5382;42.136;24.796;2022-09-02T08:03:52;13.85;;;10.55;;
10667;SDS011;5382;42.136;24.796;2022-09-02T08:06:19;13.52;;;9.25;;
10667;SDS011;5382;42.136;24.796;2022-09-02T08:08:48;9.52;;;8.10;;
10667;SDS011;5382;42.136;24.796;2022-09-02T08:11:15;9.40;;;7.35;;
10667;SDS011;5382;42.136;24.796;2022-09-02T08:13:44;12.65;;;9.98;;
10667;SDS011;5382;42.136;24.796;2022-09-02T08:16:11;15.85;;;12.43;;
10667;SDS011;5382;42.136;24.796;2022-09-02T08:18:37;12.02;;;9.60;;
10667;SDS011;5382;42.136;24.796;2022-09-02T08:21:04;15.15;;;10.52;;
10667;SDS011;5382;42.136;24.796;2022-09-02T08:23:32;12.65;;;9.60;;
10667;SDS011;5382;42.136;24.796;2022-09-02T08:25:59;9.07;;;7.55;;
10667;SDS011;5382;42.136;24.796;2022-09-02T08:28:26;13.18;;;8.57;;
10667;SDS011;5382;42.136;24.796;2022-09-02T08:30:55;15.07;;;9.63;;
10667;SDS011;5382;42.136;24.796;2022-09-02T08:33:23;19.42;;;11.20;;
10667;SDS011;5382;42.136;24.796;2022-09-02T08:35:50;15.63;;;10.88;;
10667;SDS011;5382;42.136;24.796;2022-09-02T08:38:17;12.43;;;9.65;;
10667;SDS011;5382;42.136;24.796;2022-09-02T08:40:47;11.73;;;9.07;;
10667;SDS011;5382;42.136;24.796;2022-09-02T08:43:24;25.38;;;17.70;;
10667;SDS011;5382;42.136;24.796;2022-09-02T08:45:58;26.33;;;17.55;;
10667;SDS011;5382;42.136;24.796;2022-09-02T08:48:31;15.50;;;10.30;;
10667;SDS011;5382;42.136;24.796;2022-09-02T08:51:04;15.95;;;8.75;;
10667;SDS011;5382;42.136;24.796;2022-09-02T08:53:35;10.95;;;8.40;;
10667;SDS011;5382;42.136;24.796;2022-09-02T08:56:11;11.50;;;8.07;;
10667;SDS011;5382;42.136;24.796;2022-09-02T08:58:42;12.05;;;7.47;;
10667;SDS011;5382;42.136;24.796;2022-09-02T09:01:20;16.48;;;7.82;;
10667;SDS011;5382;42.136;24.796;2022-09-02T09:04:05;11.60;;;7.90;;
10667;SDS011;5382;42.136;24.796;2022-09-02T09:06:42;11.77;;;7.95;;
10667;SDS011;5382;42.136;24.796;2022-09-02T09:09:20;10.63;;;7.65;;
10667;SDS011;5382;42.136;24.796;2022-09-02T09:11:59;11.52;;;8.10;;
10667;SDS011;5382;42.136;24.796;2022-09-02T09:14:33;12.52;;;8.75;;
10667;SDS011;5382;42.136;24.796;2022-09-02T09:17:12;9.82;;;8.52;;
10667;SDS011;5382;42.136;24.796;2022-09-02T09:19:47;20.65;;;13.30;;
10667;SDS011;5382;42.136;24.796;2022-09-02T09:22:17;19.00;;;13.50;;
10667;SDS011;5382;42.136;24.796;2022-09-02T09:24:46;23.90;;;14.18;;
10667;SDS011;5382;42.136;24.796;2022-09-02T09:27:15;18.33;;;11.23;;
10667;SDS011;5382;42.136;24.796;2022-09-02T09:29:44;17.63;;;12.65;;
10667;SDS011;5382;42.136;24.796;2022-09-02T09:32:14;17.02;;;11.18;;
10667;SDS011;5382;42.136;24.796;2022-09-02T09:34:58;17.42;;;12.32;;
10667;SDS011;5382;42.136;24.796;2022-09-02T09:37:28;16.67;;;12.93;;
10667;SDS011;5382;42.136;24.796;2022-09-02T09:39:57;17.90;;;12.98;;
10667;SDS011;5382;42.136;24.796;2022-09-02T09:42:31;23.48;;;13.85;;
10667;SDS011;5382;42.136;24.796;2022-09-02T09:44:59;21.13;;;14.95;;
10667;SDS011;5382;42.136;24.796;2022-09-02T09:47:44;19.67;;;15.60;;
10667;SDS011;5382;42.136;24.796;2022-09-02T09:50:12;22.15;;;17.10;;
10667;SDS011;5382;42.136;24.796;2022-09-02T09:52:42;21.15;;;17.77;;
10667;SDS011;5382;42.136;24.796;2022-09-02T09:55:15;26.20;;;20.13;;
10667;SDS011;5382;42.136;24.796;2022-09-02T09:57:46;23.80;;;20.20;;
10667;SDS011;5382;42.136;24.796;2022-09-02T10:00:18;19.35;;;14.40;;
10667;SDS011;5382;42.136;24.796;2022-09-02T10:02:49;17.02;;;13.90;;
10667;SDS011;5382;42.136;24.796;2022-09-02T10:05:31;14.82;;;13.35;;
10667;SDS011;5382;42.136;24.796;2022-09-02T10:08:00;14.23;;;11.40;;
10667;SDS011;5382;42.136;24.796;2022-09-02T10:10:30;14.50;;;13.00;;
10667;SDS011;5382;42.136;24.796;2022-09-02T10:12:59;16.42;;;13.15;;
10667;SDS011;5382;42.136;24.796;2022-09-02T10:15:43;14.52;;;12.02;;
10667;SDS011;5382;42.136;24.796;2022-09-02T10:18:19;15.15;;;12.70;;
10667;SDS011;5382;42.136;24.796;2022-09-02T10:20:56;18.90;;;14.18;;
10667;SDS011;5382;42.136;24.796;2022-09-02T10:23:31;18.20;;;15.75;;
10667;SDS011;5382;42.136;24.796;2022-09-02T10:26:11;20.70;;;15.55;;
10667;SDS011;5382;42.136;24.796;2022-09-02T10:29:03;18.35;;;14.77;;
10667;SDS011;5382;42.136;24.796;2022-09-02T10:31:53;18.75;;;11.82;;
10667;SDS011;5382;42.136;24.796;2022-09-02T10:34:37;16.15;;;14.48;;
10667;SDS011;5382;42.136;24.796;2022-09-02T10:37:14;16.90;;;14.27;;
10667;SDS011;5382;42.136;24.796;2022-09-02T10:40:08;16.60;;;14.07;;
10667;SDS011;5382;42.136;24.796;2022-09-02T10:42:42;18.73;;;13.68;;
10667;SDS011;5382;42.136;24.796;2022-09-02T10:45:21;16.50;;;13.73;;
10667;SDS011;5382;42.136;24.796;2022-09-02T10:47:52;14.38;;;11.45;;
10667;SDS011;5382;42.136;24.796;2022-09-02T10:50:32;14.35;;;12.52;;
10667;SDS011;5382;42.136;24.796;2022-09-02T10:53:07;17.63;;;14.07;;
10667;SDS011;5382;42.136;24.796;2022-09-02T10:55:45;12.68;;;10.05;;
10667;SDS011;5382;42.136;24.796;2022-09-02T10:58:23;14.40;;;11.07;;
10667;SDS011;5382;42.136;24.796;2022-09-02T11:01:02;14.52;;;12.18;;
10667;SDS011;5382;42.136;24.796;2022-09-02T11:03:32;15.60;;;12.13;;
10667;SDS011;5382;42.136;24.796;2022-09-02T11:06:08;17.23;;;11.40;;
10667;SDS011;5382;42.136;24.796;2022-09-02T11:08:41;12.73;;;11.43;;
10667;SDS011;5382;42.136;24.796;2022-09-02T11:11:13;12.35;;;10.95;;
10667;SDS011;5382;42.136;24.796;2022-09-02T11:13:50;13.70;;;12.13;;
10667;SDS011;5382;42.136;24.796;2022-09-02T11:16:22;16.75;;;12.05;;
10667;SDS011;5382;42.136;24.796;2022-09-02T11:18:55;15.18;;;12.40;;
10667;SDS011;5382;42.136;24.796;2022-09-02T11:21:33;15.15;;;12.70;;
10667;SDS011;5382;42.136;24.796;2022-09-02T11:24:08;14.32;;;12.60;;
10667;SDS011;5382;42.136;24.796;2022-09-02T11:26:40;13.27;;;11.98;;
10667;SDS011;5382;42.136;24.796;2022-09-02T11:29:15;13.80;;;12.35;;
10667;SDS011;5382;42.136;24.796;2022-09-02T11:31:47;14.50;;;12.90;;
10667;SDS011;5382;42.136;24.796;2022-09-02T11:34:24;14.20;;;12.73;;
10667;SDS011;5382;42.136;24.796;2022-09-02T11:37:02;26.20;;;23.70;;
10667;SDS011;5382;42.136;24.796;2022-09-02T11:39:31;16.17;;;14.55;;
10667;SDS011;5382;42.136;24.796;2022-09-02T11:42:06;15.63;;;14.05;;
10667;SDS011;5382;42.136;24.796;2022-09-02T11:44:56;15.05;;;13.07;;
10667;SDS011;5382;42.136;24.796;2022-09-02T11:47:47;16.92;;;15.40;;
10667;SDS011;5382;42.136;24.796;2022-09-02T11:50:31;14.68;;;13.13;;
10667;SDS011;5382;42.136;24.796;2022-09-02T11:53:17;14.60;;;13.25;;
10667;SDS011;5382;42.136;24.796;2022-09-02T11:55:49;16.33;;;14.63;;
10667;SDS011;5382;42.136;24.796;2022-09-02T11:58:31;15.48;;;13.32;;
10667;SDS011;5382;42.136;24.796;2022-09-02T12:01:02;14.55;;;12.98;;
10667;SDS011;5382;42.136;24.796;2022-09-02T12:03:42;12.15;;;10.85;;
10667;SDS011;5382;42.136;24.796;2022-09-02T12:06:12;13.38;;;11.93;;
10667;SDS011;5382;42.136;24.796;2022-09-02T12:08:57;13.27;;;12.07;;
10667;SDS011;5382;42.136;24.796;2022-09-02T12:17:33;11.63;;;10.27;;
10667;SDS011;5382;42.136;24.796;2022-09-02T12:20:04;9.93;;;8.70;;
10667;SDS011;5382;42.136;24.796;2022-09-02T12:22:34;9.05;;;8.23;;
10667;SDS011;5382;42.136;24.796;2022-09-02T12:28:20;9.55;;;8.55;;
10667;SDS011;5382;42.136;24.796;2022-09-02T12:31:11;14.13;;;9.15;;
10667;SDS011;5382;42.136;24.796;2022-09-02T12:34:17;11.73;;;10.60;;
10667;SDS011;5382;42.136;24.796;2022-09-02T12:40:29;13.82;;;10.43;;
10667;SDS011;5382;42.136;24.796;2022-09-02T12:43:03;10.50;;;9.45;;
10667;SDS011;5382;42.136;24.796;2022-09-02T12:45:45;10.73;;;9.68;;
10667;SDS011;5382;42.136;24.796;2022-09-02T12:48:14;10.70;;;9.77;;
10667;SDS011;5382;42.136;24.796;2022-09-02T12:50:52;9.52;;;8.73;;
10667;SDS011;5382;42.136;24.796;2022-09-02T12:56:15;14.95;;;10.35;;
10667;SDS011;5382;42.136;24.796;2022-09-02T12:58:47;10.75;;;8.90;;
10667;SDS011;5382;42.136;24.796;2022-09-02T13:01:20;10.85;;;9.75;;
10667;SDS011;5382;42.136;24.796;2022-09-02T13:04:01;11.20;;;10.20;;
10667;SDS011;5382;42.136;24.796;2022-09-02T13:06:48;11.23;;;10.02;;
10667;SDS011;5382;42.136;24.796;2022-09-02T13:12:46;11.27;;;10.13;;
10667;SDS011;5382;42.136;24.796;2022-09-02T13:15:29;12.43;;;11.20;;
10667;SDS011;5382;42.136;24.796;2022-09-02T13:18:29;13.02;;;11.63;;
10667;SDS011;5382;42.136;24.796;2022-09-02T13:21:32;10.32;;;9.15;;
10667;SDS011;5382;42.136;24.796;2022-09-02T13:24:21;10.15;;;9.25;;
10667;SDS011;5382;42.136;24.796;2022-09-02T13:30:05;12.75;;;11.38;;
10667;SDS011;5382;42.136;24.796;2022-09-02T13:32:39;11.05;;;10.05;;
10667;SDS011;5382;42.136;24.796;2022-09-02T13:35:15;12.75;;;10.63;;
10667;SDS011;5382;42.136;24.796;2022-09-02T13:37:43;11.10;;;9.95;;
10667;SDS011;5382;42.136;24.796;2022-09-02T13:40:24;11.48;;;10.38;;
10667;SDS011;5382;42.136;24.796;2022-09-02T13:42:53;10.93;;;9.82;;
10667;SDS011;5382;42.136;24.796;2022-09-02T13:45:22;12.23;;;11.02;;
10667;SDS011;5382;42.136;24.796;2022-09-02T13:47:52;11.75;;;10.55;;
10667;SDS011;5382;42.136;24.796;2022-09-02T13:50:22;11.98;;;10.73;;
10667;SDS011;5382;42.136;24.796;2022-09-02T13:52:52;12.27;;;11.07;;
10667;SDS011;5382;42.136;24.796;2022-09-02T13:55:21;13.90;;;12.15;;
10667;SDS011;5382;42.136;24.796;2022-09-02T13:57:53;14.02;;;12.52;;
10667;SDS011;5382;42.136;24.796;2022-09-02T14:00:27;12.65;;;11.35;;
10667;SDS011;5382;42.136;24.796;2022-09-02T14:02:59;13.40;;;11.88;;
10667;SDS011;5382;42.136;24.796;2022-09-02T14:05:33;15.38;;;13.93;;
10667;SDS011;5382;42.136;24.796;2022-09-02T14:08:04;12.43;;;11.27;;
10667;SDS011;5382;42.136;24.796;2022-09-02T14:10:33;15.02;;;13.48;;
10667;SDS011;5382;42.136;24.796;2022-09-02T14:13:03;13.82;;;12.32;;
10667;SDS011;5382;42.136;24.796;2022-09-02T14:15:33;15.10;;;13.40;;
10667;SDS011;5382;42.136;24.796;2022-09-02T14:18:07;15.50;;;13.95;;
10667;SDS011;5382;42.136;24.796;2022-09-02T14:20:52;16.25;;;14.65;;
10667;SDS011;5382;42.136;24.796;2022-09-02T14:23:21;15.55;;;14.05;;
10667;SDS011;5382;42.136;24.796;2022-09-02T14:25:50;17.20;;;15.15;;
10667;SDS011;5382;42.136;24.796;2022-09-02T14:28:19;16.40;;;14.73;;
10667;SDS011;5382;42.136;24.796;2022-09-02T14:30:56;16.45;;;14.85;;
10667;SDS011;5382;42.136;24.796;2022-09-02T14:33:38;15.43;;;13.95;;
10667;SDS011;5382;42.136;24.796;2022-09-02T14:39:11;17.80;;;15.95;;
10667;SDS011;5382;42.136;24.796;2022-09-02T14:41:44;16.10;;;14.50;;
10667;SDS011;5382;42.136;24.796;2022-09-02T14:44:15;16.55;;;14.65;;
10667;SDS011;5382;42.136;24.796;2022-09-02T14:46:47;15.60;;;14.00;;
10667;SDS011;5382;42.136;24.796;2022-09-02T14:49:17;16.70;;;15.07;;
10667;SDS011;5382;42.136;24.796;2022-09-02T14:51:49;12.52;;;11.18;;
10667;SDS011;5382;42.136;24.796;2022-09-02T14:54:35;15.93;;;13.43;;
10667;SDS011;5382;42.136;24.796;2022-09-02T14:57:03;11.90;;;10.68;;
10667;SDS011;5382;42.136;24.796;2022-09-02T14:59:32;11.02;;;9.90;;
10667;SDS011;5382;42.136;24.796;2022-09-02T15:01:59;9.63;;;8.73;;
10667;SDS011;5382;42.136;24.796;2022-09-02T15:04:26;11.85;;;10.65;;
10667;SDS011;5382;42.136;24.796;2022-09-02T15:06:54;15.93;;;13.65;;
10667;SDS011;5382;42.136;24.796;2022-09-02T15:09:21;13.32;;;12.02;;
10667;SDS011;5382;42.136;24.796;2022-09-02T15:11:48;13.43;;;12.05;;
10667;SDS011;5382;42.136;24.796;2022-09-02T15:14:18;15.35;;;13.70;;
10667;SDS011;5382;42.136;24.796;2022-09-02T15:16:45;13.57;;;12.20;;
10667;SDS011;5382;42.136;24.796;2022-09-02T15:19:13;15.10;;;13.55;;